CDT,Max TemperatureF,Mean TemperatureF,Min TemperatureF,Max Dew PointF,MeanDew PointF,Min DewpointF,Max Humidity, Mean Humidity, Min Humidity, Max Sea Level PressureIn, Mean Sea Level PressureIn, Min Sea Level PressureIn, Max VisibilityMiles, Mean VisibilityMiles, Min VisibilityMiles, Max Wind SpeedMPH, Mean Wind SpeedMPH, Max Gust SpeedMPH,PrecipitationIn, CloudCover, Events, WindDirDegrees
2013-7-1,82,68,54,54,50,43,89,54,26,30.26,30.22,30.19,10,10,5,13,5,,0.00,1,,352
2013-7-2,81,69,57,59,52,46,90,57,30,30.21,30.16,30.10,10,10,7,9,3,,0.00,2,Thunderstorm,9
2013-7-3,82,70,57,60,53,45,92,56,28,30.11,30.05,29.98,10,10,7,9,2,,0.00,1,,132
2013-7-4,86,73,60,58,53,48,87,52,27,29.98,29.93,29.87,10,10,10,24,11,30,0.00,0,,183
2013-7-5,87,76,67,62,57,52,67,50,33,29.90,29.86,29.83,10,10,7,25,16,32,0.00,1,Rain,188
2013-7-6,88,78,70,67,62,58,76,59,40,29.88,29.85,29.83,10,10,10,16,10,25,0.00,1,,168
2013-7-7,88,78,68,71,65,63,83,66,48,29.98,29.90,29.86,10,10,7,13,7,17,0.00,0,Thunderstorm,271
2013-7-8,88,76,63,67,62,54,89,64,32,30.05,30.00,29.97,10,10,7,8,5,,0.00,0,,64
2013-7-9,82,72,63,68,65,63,98,74,52,30.05,29.95,29.85,10,10,2,33,8,53,0.43,1,Rain-Thunderstorm,280
2013-7-10,77,68,58,65,55,47,95,66,34,30.16,30.11,30.06,10,10,7,14,7,,0.00,0,,341
2013-7-11,83,70,56,62,58,55,95,64,40,30.14,30.07,29.98,10,9,5,20,7,25,0.00,1,,158
2013-7-12,88,78,68,66,61,56,69,57,45,30.01,29.95,29.89,10,10,10,23,15,32,0.00,0,,168
2013-7-13,79,75,71,69,65,61,80,69,60,30.05,29.98,29.92,10,10,10,18,13,23,0.00,2,Thunderstorm,153
2013-7-14,80,73,66,68,63,58,89,74,50,30.22,30.13,30.02,10,10,10,15,9,18,0.00,6,Rain-Thunderstorm,154
2013-7-15,85,72,59,68,62,57,99,70,39,30.26,30.22,30.18,10,8,1,14,4,21,0.00,2,,167
2013-7-16,87,76,66,68,64,57,95,67,37,30.28,30.24,30.20,10,10,7,16,8,23,0.00,0,,191
2013-7-17,90,79,68,67,65,61,87,63,39,30.31,30.26,30.18,10,10,10,14,8,22,0.00,0,,201
2013-7-18,90,80,71,68,66,63,85,61,40,30.18,30.02,29.87,10,10,10,23,13,31,0.00,0,,205
2013-7-19,81,72,63,68,61,50,90,63,36,30.00,29.94,29.87,10,10,10,17,10,23,0.00,0,,297
2013-7-20,81,70,61,65,60,57,91,70,47,30.02,29.98,29.94,10,10,10,13,5,,0.00,2,,275
2013-7-21,85,73,61,66,62,55,97,71,36,29.97,29.89,29.81,10,10,7,10,3,,0.00,3,,150
2013-7-22,81,71,60,67,63,56,98,73,51,29.95,29.82,29.75,10,9,7,20,9,26,0.03,2,Rain-Thunderstorm,281
2013-7-23,72,62,54,58,55,48,97,77,47,30.07,30.03,29.95,10,10,7,12,5,,0.00,2,Rain,350
2013-7-24,79,66,54,60,54,49,93,68,38,30.12,30.08,30.03,10,10,10,9,4,10,0.00,3,,284
2013-7-25,79,70,62,68,62,58,87,72,53,30.05,30.01,29.97,10,10,10,14,8,18,0.00,2,,244
2013-7-26,67,59,51,64,51,46,93,73,46,30.16,30.10,30.00,10,10,2,25,11,31,0.17,4,Rain,323
2013-7-27,67,56,44,49,44,40,97,69,39,30.16,30.11,30.04,10,10,10,17,7,22,0.00,3,,320
2013-7-28,71,57,43,51,46,41,93,66,39,30.11,30.07,30.05,10,10,10,16,7,20,0.00,1,,323
2013-7-29,73,59,46,59,50,44,93,70,40,30.13,30.10,30.08,10,10,7,14,4,18,0.00,4,,155
2013-7-30,71,66,61,63,60,57,98,84,71,30.14,30.11,30.08,10,9,2,9,3,,0.00,7,,236
2013-7-31,79,68,56,60,57,50,99,75,38,30.17,30.13,30.09,10,9,5,12,5,17,0.00,2,Rain,300